createdAt,value
2018-12-27T00:00:43.239Z,55.61
2018-12-27T00:03:09.577Z,56.26
2018-12-27T00:05:36.011Z,56.21
2018-12-27T00:08:02.335Z,56.01
2018-12-27T00:10:28.703Z,56.33
2018-12-27T00:12:55.099Z,55.36
2018-12-27T00:15:21.124Z,55.48
2018-12-27T00:17:47.206Z,55.23
2018-12-27T00:20:13.317Z,55.74
2018-12-27T00:22:39.399Z,55.77
2018-12-27T00:25:05.436Z,55.57
2018-12-27T00:27:31.793Z,55.82
2018-12-27T00:29:58.194Z,55.70
2018-12-27T00:32:24.197Z,56.40
2018-12-27T00:34:50.234Z,56.40
2018-12-27T00:37:16.885Z,56.67
2018-12-27T00:39:42.912Z,56.73
2018-12-27T00:42:08.924Z,56.79
2018-12-27T00:44:34.928Z,56.35
2018-12-27T00:47:01.070Z,56.11
2018-12-27T00:49:27.513Z,56.45
2018-12-27T00:51:53.548Z,56.50
2018-12-27T00:54:19.639Z,57.05
2018-12-27T00:56:45.658Z,56.89
2018-12-27T00:59:12.232Z,56.81
2018-12-27T01:01:38.235Z,56.25
2018-12-27T01:04:04.598Z,56.64
2018-12-27T01:06:30.697Z,56.34
2018-12-27T01:08:57.031Z,56.56
2018-12-27T01:11:23.092Z,56.07
2018-12-27T01:13:49.936Z,56.42
2018-12-27T01:16:16.341Z,56.52
2018-12-27T01:18:42.774Z,56.47
2018-12-27T01:21:08.797Z,56.07
2018-12-27T01:23:35.246Z,56.78
2018-12-27T01:26:01.345Z,56.68
2018-12-27T01:28:27.705Z,56.40
2018-12-27T01:30:54.011Z,56.14
2018-12-27T01:33:20.029Z,55.95
2018-12-27T01:35:46.125Z,55.95
2018-12-27T01:38:12.143Z,56.04
2018-12-27T01:40:38.628Z,56.06
2018-12-27T01:43:04.953Z,56.28
2018-12-27T01:45:30.979Z,55.89
2018-12-27T01:47:57.045Z,55.67
2018-12-27T01:50:23.433Z,55.74
2018-12-27T01:52:49.781Z,55.33
2018-12-27T01:55:16.202Z,55.63
2018-12-27T01:57:42.220Z,55.92
2018-12-27T02:00:08.730Z,55.63
2018-12-27T02:02:34.803Z,55.71
2018-12-27T02:05:00.873Z,55.68
2018-12-27T02:07:27.242Z,55.78
2018-12-27T02:09:53.288Z,55.79
2018-12-27T02:12:19.360Z,55.86
2018-12-27T02:14:45.738Z,55.83
2018-12-27T02:17:11.808Z,55.86
2018-12-27T02:19:38.071Z,55.82
2018-12-27T02:22:04.120Z,56.04
2018-12-27T02:24:30.191Z,55.88
2018-12-27T02:26:56.568Z,56.22
2018-12-27T02:29:23.002Z,56.03
2018-12-27T02:31:49.133Z,56.26
2018-12-27T02:34:15.201Z,56.19
2018-12-27T02:36:41.244Z,56.23
2018-12-27T02:39:07.347Z,55.94
2018-12-27T02:41:33.735Z,56.02
2018-12-27T02:44:00.069Z,56.12
2018-12-27T02:46:26.180Z,55.44
2018-12-27T02:48:52.196Z,55.87
2018-12-27T02:51:18.655Z,56.24
2018-12-27T02:53:44.985Z,56.05
2018-12-27T02:56:11.015Z,56.42
2018-12-27T02:58:37.443Z,56.16
2018-12-27T03:01:03.884Z,56.27
2018-12-27T03:03:30.194Z,56.20
2018-12-27T03:05:56.245Z,57.06
2018-12-27T03:08:22.335Z,56.58
2018-12-27T03:10:48.423Z,55.96
2018-12-27T03:13:14.552Z,55.77
2018-12-27T03:15:40.650Z,55.59
2018-12-27T03:18:06.654Z,56.45
2018-12-27T03:20:33.009Z,56.89
2018-12-27T03:23:01.401Z,56.27
2018-12-27T03:25:29.008Z,56.08
2018-12-27T03:27:55.011Z,56.34
2018-12-27T03:30:21.156Z,56.52
2018-12-27T03:32:51.389Z,56.30
2018-12-27T03:35:17.423Z,56.40
2018-12-27T03:37:43.866Z,56.44
2018-12-27T03:40:13.030Z,55.97
2018-12-27T03:42:39.394Z,55.82
2018-12-27T03:45:05.461Z,55.61
2018-12-27T03:47:31.755Z,56.11
2018-12-27T03:49:58.699Z,56.50
2018-12-27T03:52:24.786Z,56.41
2018-12-27T03:54:50.879Z,55.82
2018-12-27T03:57:17.303Z,55.97
2018-12-27T03:59:52.267Z,55.73
2018-12-27T04:02:18.612Z,55.83
2018-12-27T04:04:44.804Z,55.87
2018-12-27T04:07:11.206Z,55.71
2018-12-27T04:09:37.201Z,55.84
2018-12-27T04:12:03.571Z,55.72
2018-12-27T04:14:29.649Z,55.41
2018-12-27T04:16:55.649Z,55.46
2018-12-27T04:19:21.775Z,55.33
2018-12-27T04:21:48.170Z,55.09
2018-12-27T04:24:14.200Z,55.56
2018-12-27T04:26:40.631Z,55.46
2018-12-27T04:29:06.739Z,55.43
2018-12-27T04:31:32.755Z,55.61
2018-12-27T04:33:58.834Z,55.80
2018-12-27T04:36:24.967Z,55.66
2018-12-27T04:38:51.040Z,55.73
2018-12-27T04:41:17.086Z,56.57
2018-12-27T04:43:43.180Z,56.97
2018-12-27T04:46:09.250Z,56.29
2018-12-27T04:48:35.287Z,55.85
2018-12-27T04:51:01.367Z,55.57
2018-12-27T04:53:27.462Z,55.76
2018-12-27T04:55:53.553Z,55.32
2018-12-27T04:58:19.861Z,55.30
2018-12-27T05:00:46.410Z,54.90
2018-12-27T05:03:12.498Z,55.81
2018-12-27T05:05:38.502Z,56.84
2018-12-27T05:08:05.094Z,57.22
2018-12-27T05:10:31.165Z,56.28
2018-12-27T05:12:57.186Z,56.15
2018-12-27T05:15:23.571Z,55.55
2018-12-27T05:17:49.593Z,55.33
2018-12-27T05:20:15.629Z,55.18
2018-12-27T05:22:41.734Z,55.24
2018-12-27T05:25:07.759Z,55.02
2018-12-27T05:27:33.774Z,55.09
2018-12-27T05:30:00.170Z,55.27
2018-12-27T05:32:26.962Z,55.12
2018-12-27T05:34:53.489Z,55.26
2018-12-27T05:37:19.521Z,55.15
2018-12-27T05:39:45.606Z,54.82
2018-12-27T05:42:12.291Z,55.10
2018-12-27T05:44:38.724Z,55.40
2018-12-27T05:47:05.033Z,55.22
2018-12-27T05:49:31.065Z,54.94
2018-12-27T05:51:57.146Z,55.26
2018-12-27T05:54:23.167Z,54.92
2018-12-27T05:56:49.252Z,54.99
2018-12-27T05:59:15.344Z,54.71
2018-12-27T06:01:41.369Z,55.12
2018-12-27T06:04:07.835Z,54.71
2018-12-27T06:06:33.864Z,54.42
2018-12-27T06:09:00.441Z,54.59
2018-12-27T06:11:26.541Z,54.54
2018-12-27T06:13:53.092Z,54.80
2018-12-27T06:16:19.155Z,54.90
2018-12-27T06:18:45.195Z,54.69
2018-12-27T06:21:11.548Z,54.71
2018-12-27T06:23:37.858Z,55.23
2018-12-27T06:26:03.873Z,54.81
2018-12-27T06:28:29.887Z,55.33
2018-12-27T06:30:55.946Z,54.92
2018-12-27T06:33:22.060Z,55.04
2018-12-27T06:35:48.526Z,54.93
2018-12-27T06:38:14.653Z,55.04
2018-12-27T06:40:40.723Z,54.74
2018-12-27T06:43:06.751Z,55.26
2018-12-27T06:45:32.854Z,55.17
2018-12-27T06:47:59.248Z,54.99
2018-12-27T06:50:25.666Z,55.37
2018-12-27T06:52:51.936Z,55.61
2018-12-27T06:55:17.987Z,55.94
2018-12-27T06:57:44.349Z,55.66
2018-12-27T07:00:10.449Z,56.10
2018-12-27T07:02:36.541Z,55.53
2018-12-27T07:05:02.546Z,55.61
2018-12-27T07:07:30.102Z,55.96
2018-12-27T07:09:56.184Z,55.76
2018-12-27T07:12:22.554Z,55.41
2018-12-27T07:14:48.656Z,55.01
2018-12-27T07:17:15.013Z,55.39
2018-12-27T07:19:41.155Z,55.26
2018-12-27T07:22:07.261Z,55.51
2018-12-27T07:24:33.345Z,55.26
2018-12-27T07:26:59.427Z,54.94
2018-12-27T07:29:25.450Z,54.83
2018-12-27T07:31:51.463Z,55.40
2018-12-27T07:34:17.575Z,55.39
2018-12-27T07:36:43.686Z,55.52
2018-12-27T07:39:10.138Z,55.19
2018-12-27T07:41:36.191Z,55.02
2018-12-27T07:44:02.255Z,55.01
2018-12-27T07:46:28.342Z,54.98
2018-12-27T07:48:54.458Z,55.53
2018-12-27T07:51:20.566Z,55.66
2018-12-27T07:53:46.636Z,55.41
2018-12-27T07:56:12.931Z,55.29
2018-12-27T07:58:39.030Z,54.96
2018-12-27T08:01:05.393Z,55.12
2018-12-27T08:03:31.821Z,54.88
2018-12-27T08:05:58.247Z,54.05
2018-12-27T08:08:24.579Z,53.71
2018-12-27T08:10:51.009Z,53.16
2018-12-27T08:13:17.357Z,53.09
2018-12-27T08:15:43.467Z,53.17
2018-12-27T08:18:10.643Z,52.44
2018-12-27T08:23:09.473Z,51.43
2018-12-27T08:25:35.561Z,51.60
2018-12-27T08:28:01.654Z,51.92
2018-12-27T08:30:29.279Z,51.90
2018-12-27T08:32:55.984Z,51.97
2018-12-27T08:35:22.125Z,51.90
2018-12-27T08:37:48.545Z,52.10
2018-12-27T08:40:14.753Z,52.14
2018-12-27T08:42:40.784Z,52.16
2018-12-27T08:45:07.158Z,51.75
2018-12-27T08:47:33.773Z,51.44
2018-12-27T08:50:01.867Z,51.33
2018-12-27T08:52:27.617Z,51.66
2018-12-27T08:54:53.717Z,51.94
2018-12-27T08:57:19.813Z,52.00
2018-12-27T08:59:46.751Z,51.96
2018-12-27T09:02:12.858Z,51.28
2018-12-27T09:04:39.261Z,50.59
2018-12-27T09:07:05.333Z,49.61
2018-12-27T09:09:31.430Z,49.84
2018-12-27T09:11:57.635Z,50.82
2018-12-27T09:14:25.902Z,50.96
2018-12-27T09:16:52.079Z,51.10
2018-12-27T09:19:18.479Z,53.60
2018-12-27T09:21:45.047Z,53.20
2018-12-27T09:24:11.463Z,52.82
2018-12-27T09:26:39.696Z,52.90
2018-12-27T09:29:05.828Z,52.54
2018-12-27T09:31:31.936Z,53.29
2018-12-27T09:33:58.064Z,52.03
2018-12-27T09:36:26.997Z,52.33
2018-12-27T09:38:54.615Z,52.03
2018-12-27T09:41:22.036Z,52.33
2018-12-27T09:43:48.240Z,52.59
2018-12-27T09:46:14.674Z,50.93
2018-12-27T09:48:41.224Z,50.28
2018-12-27T09:51:07.593Z,50.92
2018-12-27T09:53:34.005Z,50.22
2018-12-27T09:56:00.090Z,50.00
2018-12-27T09:58:26.164Z,50.54
2018-12-27T10:00:55.890Z,50.67
2018-12-27T10:03:22.285Z,50.28
2018-12-27T10:05:48.398Z,49.97
2018-12-27T10:08:15.771Z,50.69
2018-12-27T10:10:41.937Z,50.13
2018-12-27T10:13:08.342Z,50.04
2018-12-27T10:15:34.503Z,49.50
2018-12-27T10:18:00.642Z,48.55
2018-12-27T10:20:26.992Z,49.13
2018-12-27T10:22:55.133Z,49.39
2018-12-27T10:25:21.210Z,48.67
2018-12-27T10:27:48.838Z,48.32
2018-12-27T10:30:14.937Z,49.19
2018-12-27T10:32:41.002Z,48.64
2018-12-27T10:35:07.014Z,48.55
2018-12-27T10:37:37.233Z,48.09
2018-12-27T10:40:03.266Z,47.79
2018-12-27T10:42:29.363Z,47.57
2018-12-27T10:44:55.436Z,48.62
2018-12-27T10:47:21.528Z,48.55
2018-12-27T10:49:47.539Z,48.74
2018-12-27T10:55:11.934Z,47.54
2018-12-27T10:57:38.396Z,48.26
2018-12-27T11:00:04.552Z,47.85
2018-12-27T11:02:31.040Z,47.23
2018-12-27T11:04:57.564Z,46.80
2018-12-27T11:07:23.618Z,46.45
2018-12-27T11:09:51.901Z,46.01
2018-12-27T11:12:17.697Z,47.70
2018-12-27T11:14:44.538Z,47.47
2018-12-27T11:17:11.008Z,47.04
2018-12-27T11:19:37.301Z,46.30
2018-12-27T11:22:05.821Z,47.01
2018-12-27T11:24:31.819Z,46.18
2018-12-27T11:26:59.960Z,46.54
2018-12-27T11:29:26.053Z,46.18
2018-12-27T11:31:52.125Z,46.75
2018-12-27T11:34:18.211Z,47.52
2018-12-27T11:36:44.300Z,46.79
2018-12-27T11:39:10.713Z,47.03
2018-12-27T11:41:36.732Z,46.28
2018-12-27T11:44:02.800Z,46.32
2018-12-27T11:46:28.839Z,46.11
2018-12-27T11:48:54.857Z,45.32
2018-12-27T11:51:20.879Z,46.86
2018-12-27T11:53:46.893Z,46.17
2018-12-27T11:56:12.938Z,47.34
2018-12-27T11:58:39.432Z,46.94
2018-12-27T12:01:05.813Z,47.80
2018-12-27T12:03:31.892Z,46.60
2018-12-27T12:06:03.205Z,45.51
2018-12-27T12:08:25.752Z,45.92
2018-12-27T12:10:52.094Z,46.04
2018-12-27T12:13:18.789Z,44.87
2018-12-27T12:15:45.125Z,45.23
2018-12-27T12:18:11.231Z,44.24
2018-12-27T12:20:37.371Z,44.01
2018-12-27T12:23:03.446Z,44.47
2018-12-27T12:25:29.485Z,44.86
2018-12-27T12:27:55.895Z,44.29
2018-12-27T12:30:21.927Z,44.03
2018-12-27T12:32:49.487Z,44.55
2018-12-27T12:35:15.902Z,45.14
2018-12-27T12:37:42.271Z,45.03
2018-12-27T12:40:11.439Z,44.99
2018-12-27T12:42:37.627Z,44.80
2018-12-27T12:45:03.961Z,44.52
2018-12-27T12:47:29.990Z,43.89
2018-12-27T12:49:56.385Z,44.43
2018-12-27T12:52:22.478Z,43.93
2018-12-27T12:54:48.832Z,44.39
2018-12-27T12:57:15.261Z,45.62
2018-12-27T12:59:41.725Z,45.28
2018-12-27T13:02:08.170Z,43.89
2018-12-27T13:04:34.222Z,43.61
2018-12-27T13:07:00.321Z,43.55
2018-12-27T13:09:26.426Z,43.73
2018-12-27T13:11:52.806Z,43.26
2018-12-27T13:14:18.837Z,43.64
2018-12-27T13:16:45.193Z,44.10
2018-12-27T13:19:11.363Z,44.39
2018-12-27T13:21:37.729Z,43.86
2018-12-27T13:24:06.641Z,44.01
2018-12-27T13:26:32.987Z,44.44
2018-12-27T13:28:59.000Z,43.61
2018-12-27T13:31:25.088Z,44.26
2018-12-27T13:33:51.133Z,45.20
2018-12-27T13:36:25.196Z,45.60
2018-12-27T13:38:46.589Z,45.87
2018-12-27T13:41:12.664Z,45.96
2018-12-27T13:43:39.061Z,45.44
2018-12-27T13:46:05.146Z,45.19
2018-12-27T13:48:31.809Z,46.03
2018-12-27T13:51:00.602Z,45.15
2018-12-27T13:53:27.145Z,45.72
2018-12-27T13:55:53.569Z,44.61
2018-12-27T13:58:19.747Z,45.07
2018-12-27T14:00:50.467Z,45.04
2018-12-27T14:03:16.538Z,45.02
2018-12-27T14:05:42.889Z,45.31
2018-12-27T14:08:09.460Z,45.46
2018-12-27T14:10:35.545Z,45.36
2018-12-27T14:13:01.983Z,45.67
2018-12-27T14:15:28.083Z,45.82
2018-12-27T14:17:54.443Z,46.16
2018-12-27T14:20:20.485Z,45.32
2018-12-27T14:22:46.570Z,45.42
2018-12-27T14:25:12.709Z,45.71
2018-12-27T14:27:38.814Z,46.17
2018-12-27T14:30:05.203Z,46.47
2018-12-27T14:32:31.302Z,46.79
2018-12-27T14:34:57.749Z,46.37
2018-12-27T14:37:23.848Z,46.48
2018-12-27T14:39:50.190Z,46.10
2018-12-27T14:42:16.228Z,46.67
2018-12-27T14:44:43.262Z,46.91
2018-12-27T14:47:09.297Z,47.16
2018-12-27T14:49:35.414Z,46.99
2018-12-27T14:52:01.844Z,47.14
2018-12-27T14:54:28.112Z,47.18
2018-12-27T14:56:59.425Z,47.32
2018-12-27T14:59:29.939Z,47.80
2018-12-27T15:01:56.056Z,47.60
2018-12-27T15:04:22.443Z,47.96
2018-12-27T15:06:48.890Z,47.68
2018-12-27T15:09:15.014Z,48.09
2018-12-27T15:11:41.088Z,47.76
2018-12-27T15:14:07.222Z,47.72
2018-12-27T15:16:33.696Z,47.48
2018-12-27T15:19:01.013Z,47.50
2018-12-27T15:21:27.578Z,47.67
2018-12-27T15:23:53.823Z,47.21
2018-12-27T15:26:20.327Z,47.20
2018-12-27T15:28:46.994Z,47.50
2018-12-27T15:31:13.166Z,47.26
2018-12-27T15:33:39.226Z,47.85
2018-12-27T15:36:06.856Z,47.78
2018-12-27T15:38:33.244Z,47.62
2018-12-27T15:41:00.698Z,47.58
2018-12-27T15:43:26.764Z,47.57
2018-12-27T15:45:58.692Z,47.70
2018-12-27T15:48:25.297Z,47.45
2018-12-27T15:50:51.495Z,47.23
2018-12-27T15:53:17.889Z,47.29
2018-12-27T15:55:43.970Z,47.42
2018-12-27T15:58:11.353Z,47.24
2018-12-27T16:00:37.810Z,46.95
2018-12-27T16:03:04.378Z,47.36
2018-12-27T16:05:30.908Z,47.26
2018-12-27T16:07:57.302Z,47.03
2018-12-27T16:10:23.824Z,46.89
2018-12-27T16:12:49.914Z,47.09
2018-12-27T16:15:16.041Z,47.23
2018-12-27T16:17:42.936Z,47.33
2018-12-27T16:20:09.994Z,47.56
2018-12-27T16:22:36.106Z,48.20
2018-12-27T16:25:02.292Z,48.04
2018-12-27T16:27:28.646Z,47.96
2018-12-27T16:29:55.068Z,47.81
2018-12-27T16:32:21.466Z,47.85
2018-12-27T16:34:48.126Z,47.65
2018-12-27T16:37:14.255Z,47.45
2018-12-27T16:39:40.353Z,47.26
2018-12-27T16:42:06.904Z,47.33
2018-12-27T16:44:32.961Z,47.63
2018-12-27T16:46:59.101Z,47.73
2018-12-27T16:49:25.228Z,47.92
2018-12-27T16:51:51.322Z,48.23
2018-12-27T16:54:18.315Z,47.74
2018-12-27T16:56:47.427Z,47.34
2018-12-27T16:59:13.072Z,47.25
2018-12-27T17:01:39.513Z,47.37
2018-12-27T17:04:07.381Z,47.69
2018-12-27T17:06:33.583Z,48.03
2018-12-27T17:08:59.728Z,48.18
2018-12-27T17:11:26.061Z,48.45
2018-12-27T17:13:52.461Z,48.12
2018-12-27T17:16:21.623Z,48.05
2018-12-27T17:18:47.983Z,48.44
2018-12-27T17:21:14.097Z,48.94
2018-12-27T17:23:40.534Z,48.93
2018-12-27T17:26:06.878Z,48.05
2018-12-27T17:28:32.975Z,47.82
2018-12-27T17:30:59.298Z,46.59
2018-12-27T17:33:25.605Z,46.24
2018-12-27T17:35:52.005Z,45.45
2018-12-27T17:38:18.122Z,45.58
2018-12-27T17:40:44.253Z,44.74
2018-12-27T17:43:10.383Z,44.23
2018-12-27T17:45:36.764Z,44.40
2018-12-27T17:48:03.219Z,43.40
2018-12-27T17:50:30.695Z,43.30
2018-12-27T17:52:56.974Z,43.57
2018-12-27T17:55:23.247Z,42.76
2018-12-27T17:57:49.557Z,42.57
2018-12-27T18:00:15.926Z,42.73
2018-12-27T18:02:44.348Z,42.44
2018-12-27T18:05:10.692Z,42.14
2018-12-27T18:07:37.493Z,42.44
2018-12-27T18:10:04.155Z,42.08
2018-12-27T18:12:30.229Z,42.16
2018-12-27T18:14:56.608Z,42.05
2018-12-27T18:17:25.090Z,41.96
2018-12-27T18:19:51.489Z,42.13
2018-12-27T18:22:17.568Z,42.05
2018-12-27T18:24:44.001Z,41.84
2018-12-27T18:27:10.022Z,41.73
2018-12-27T18:29:36.182Z,42.14
2018-12-27T18:32:02.519Z,41.87
2018-12-27T18:34:29.092Z,41.88
2018-12-27T18:36:55.305Z,41.87
2018-12-27T18:39:23.750Z,42.11
2018-12-27T18:41:49.874Z,42.28
2018-12-27T18:44:20.657Z,42.16
2018-12-27T18:46:46.856Z,41.97
2018-12-27T18:49:13.015Z,42.36
2018-12-27T18:51:39.114Z,41.60
2018-12-27T18:54:05.774Z,41.92
2018-12-27T18:56:33.178Z,42.44
2018-12-27T18:58:59.202Z,42.39
2018-12-27T19:01:25.374Z,42.20
2018-12-27T19:03:51.515Z,42.20
2018-12-27T19:06:18.806Z,42.28
2018-12-27T19:08:44.982Z,42.49
2018-12-27T19:11:11.630Z,42.54
2018-12-27T19:13:37.736Z,42.71
2018-12-27T19:16:04.061Z,43.00
2018-12-27T19:18:30.689Z,43.36
2018-12-27T19:20:58.935Z,42.95
2018-12-27T19:23:24.618Z,42.75
2018-12-27T19:25:51.149Z,43.02
2018-12-27T19:28:17.286Z,43.12
2018-12-27T19:30:43.366Z,42.56
2018-12-27T19:33:09.766Z,43.36
2018-12-27T19:35:36.221Z,43.44
2018-12-27T19:38:04.901Z,43.59
2018-12-27T19:40:30.990Z,43.69
2018-12-27T19:42:57.148Z,43.39
2018-12-27T19:45:23.312Z,43.54
2018-12-27T19:47:49.403Z,43.79
2018-12-27T19:50:15.583Z,43.64
2018-12-27T19:52:41.983Z,43.47
2018-12-27T19:55:08.041Z,43.49
2018-12-27T19:57:34.055Z,43.35
2018-12-27T20:00:00.348Z,43.19
2018-12-27T20:02:26.747Z,43.53
2018-12-27T20:04:53.164Z,43.18
2018-12-27T20:07:19.210Z,43.55
2018-12-27T20:09:45.465Z,43.43
2018-12-27T20:12:12.183Z,43.37
2018-12-27T20:14:38.311Z,43.54
2018-12-27T20:17:04.714Z,44.18
2018-12-27T20:19:30.869Z,44.00
2018-12-27T20:21:57.385Z,44.41
2018-12-27T20:24:23.781Z,44.13
2018-12-27T20:26:50.148Z,44.28
2018-12-27T20:29:16.276Z,44.45
2018-12-27T20:31:42.367Z,44.64
2018-12-27T20:34:08.517Z,44.60
2018-12-27T20:36:34.619Z,44.59
2018-12-27T20:39:00.748Z,44.73
2018-12-27T20:41:26.922Z,45.08
2018-12-27T20:43:53.110Z,45.29
2018-12-27T20:46:19.551Z,45.49
2018-12-27T20:48:45.689Z,45.88
2018-12-27T20:51:11.805Z,45.94
2018-12-27T20:53:38.243Z,46.26
2018-12-27T20:56:04.610Z,46.45
2018-12-27T20:58:30.780Z,46.88
2018-12-27T21:00:56.882Z,47.02
2018-12-27T21:03:23.033Z,47.04
2018-12-27T21:05:49.149Z,47.82
2018-12-27T21:08:15.240Z,47.42
2018-12-27T21:10:41.826Z,47.85
2018-12-27T21:13:08.211Z,47.42
2018-12-27T21:15:34.293Z,47.44
2018-12-27T21:18:00.669Z,47.74
2018-12-27T21:20:27.364Z,47.91
2018-12-27T21:22:54.658Z,47.97
2018-12-27T21:25:20.879Z,47.49
2018-12-27T21:27:47.479Z,47.40
2018-12-27T21:30:15.762Z,47.61
2018-12-27T21:32:42.196Z,47.55
2018-12-27T21:35:08.804Z,47.46
2018-12-27T21:37:35.711Z,47.48
2018-12-27T21:40:02.019Z,47.15
2018-12-27T21:42:28.301Z,47.20
2018-12-27T21:44:54.435Z,47.23
2018-12-27T21:47:23.625Z,46.86
2018-12-27T21:49:49.854Z,46.87
2018-12-27T21:52:16.008Z,47.43
2018-12-27T21:54:42.439Z,47.48
2018-12-27T21:57:08.497Z,47.40
2018-12-27T21:59:34.588Z,47.68
2018-12-27T22:02:01.017Z,47.38
2018-12-27T22:04:27.443Z,47.27
2018-12-27T22:06:53.882Z,47.05
2018-12-27T22:09:20.302Z,47.05
2018-12-27T22:11:46.679Z,47.07
2018-12-27T22:14:13.087Z,47.17
2018-12-27T22:16:39.198Z,47.13
2018-12-27T22:19:05.279Z,47.15
2018-12-27T22:21:31.346Z,46.90
2018-12-27T22:23:57.393Z,47.02
2018-12-27T22:26:23.485Z,46.35
2018-12-27T22:28:49.566Z,46.84
2018-12-27T22:31:15.683Z,47.08
2018-12-27T22:33:41.792Z,46.94
2018-12-27T22:36:08.117Z,46.81
2018-12-27T22:38:35.736Z,47.03
2018-12-27T22:41:02.407Z,46.89
2018-12-27T22:43:28.751Z,46.67
2018-12-27T22:45:54.830Z,47.01
2018-12-27T22:48:21.400Z,46.25
2018-12-27T22:50:47.480Z,46.14
2018-12-27T22:53:13.571Z,46.10
2018-12-27T22:55:39.618Z,46.51
2018-12-27T22:58:05.717Z,46.35
2018-12-27T23:00:32.149Z,46.47
2018-12-27T23:02:59.611Z,46.50
2018-12-27T23:05:25.770Z,46.20
2018-12-27T23:07:51.913Z,46.29
2018-12-27T23:10:18.275Z,46.45
2018-12-27T23:12:44.377Z,46.45
2018-12-27T23:15:10.706Z,46.27
2018-12-27T23:17:37.028Z,46.31
2018-12-27T23:20:03.076Z,46.68
2018-12-27T23:22:29.103Z,46.60
2018-12-27T23:24:55.555Z,46.54
2018-12-27T23:27:21.661Z,46.67
2018-12-27T23:29:47.726Z,45.97
2018-12-27T23:32:13.786Z,46.30
2018-12-27T23:34:39.898Z,46.55
2018-12-27T23:37:06.409Z,46.06
2018-12-27T23:39:32.482Z,46.45
2018-12-27T23:41:59.070Z,46.38
2018-12-27T23:44:25.169Z,46.31
2018-12-27T23:46:51.273Z,46.22
2018-12-27T23:49:17.367Z,46.33
2018-12-27T23:51:43.445Z,46.48
2018-12-27T23:54:09.789Z,46.83
2018-12-27T23:56:35.897Z,47.04
2018-12-27T23:59:01.918Z,46.98
